Time;durP1;ratioP1;P1;durP2;ratioP2;P2;SDS_P1;SDS_P2;PMS_P1;PMS_P2;Temp;Humidity;BMP_temperature;BMP_pressure;BME280_temperature;BME280_humidity;BME280_pressure;Samples;Min_cycle;Max_cycle;Signal;HPM_P1;HPM_P2
2022/08/01 00:01:56;;;;;;;3.50;2.65;;;22.80;76.70;;;;;;4940141;28;20561;-67
2022/08/01 00:04:22;;;;;;;4.07;2.45;;;22.70;76.80;;;;;;4938763;29;20043;-67
2022/08/01 00:06:48;;;;;;;3.33;2.67;;;22.70;77.20;;;;;;4938509;29;20035;-66
2022/08/01 00:09:13;;;;;;;2.90;2.40;;;22.70;77.40;;;;;;4936094;29;20846;-66
2022/08/01 00:11:39;;;;;;;3.25;2.80;;;22.70;77.80;;;;;;4940645;28;20081;-67
2022/08/01 00:14:05;;;;;;;4.30;3.00;;;22.70;78.50;;;;;;4943783;28;20039;-67
2022/08/01 00:16:31;;;;;;;3.03;2.83;;;22.70;78.20;;;;;;4943373;28;20038;-67
2022/08/01 00:18:57;;;;;;;5.45;2.88;;;22.60;79.00;;;;;;4941141;28;20543;-67
2022/08/01 00:21:23;;;;;;;3.50;2.85;;;22.60;78.50;;;;;;4939688;29;20214;-66
2022/08/01 00:23:48;;;;;;;2.97;2.67;;;22.60;78.60;;;;;;4938580;28;20711;-67
2022/08/01 00:26:14;;;;;;;4.38;3.00;;;22.60;78.60;;;;;;4936795;29;20496;-67
2022/08/01 00:28:41;;;;;;;3.75;2.85;;;22.60;78.60;;;;;;4937214;29;20488;-66
2022/08/01 00:31:07;;;;;;;4.13;2.55;;;22.60;78.70;;;;;;4941231;28;20039;-67
2022/08/01 00:33:33;;;;;;;3.50;2.90;;;22.60;78.80;;;;;;4942650;28;20043;-67
2022/08/01 00:35:58;;;;;;;3.17;2.53;;;22.50;79.00;;;;;;4943963;29;20031;-66
2022/08/01 00:38:24;;;;;;;4.93;3.05;;;22.50;79.20;;;;;;4942981;29;20045;-66
2022/08/01 00:40:50;;;;;;;3.85;3.00;;;22.50;79.30;;;;;;4942393;28;20050;-66
2022/08/01 00:43:16;;;;;;;3.45;3.10;;;22.50;79.40;;;;;;4937698;29;20635;-66
2022/08/01 00:45:42;;;;;;;4.15;2.80;;;22.40;79.60;;;;;;4937619;28;20031;-66
2022/08/01 00:48:08;;;;;;;4.32;2.95;;;22.40;79.80;;;;;;4933718;29;20040;-66
2022/08/01 00:50:34;;;;;;;3.30;3.00;;;22.40;79.90;;;;;;4943281;29;20682;-66
2022/08/01 00:53:02;;;;;;;3.63;3.00;;;22.40;79.90;;;;;;4941952;28;20507;-67
2022/08/01 00:55:28;;;;;;;3.42;3.13;;;22.40;80.00;;;;;;4940875;29;20043;-66
2022/08/01 00:57:55;;;;;;;3.63;3.33;;;22.40;80.20;;;;;;4941963;28;20039;-66
2022/08/01 01:00:21;;;;;;;3.33;2.90;;;22.40;80.20;;;;;;4937371;29;20369;-67
2022/08/01 01:02:48;;;;;;;2.88;2.65;;;22.40;80.30;;;;;;4937048;28;20031;-67
2022/08/01 01:05:13;;;;;;;3.15;2.78;;;22.40;80.40;;;;;;4934612;29;20408;-66
2022/08/01 01:07:42;;;;;;;5.30;3.45;;;22.30;80.60;;;;;;4939792;29;20024;-67
2022/08/01 01:10:22;;;;;;;3.72;3.05;;;22.30;80.60;;;;;;4941396;28;20034;-66
2022/08/01 01:12:58;;;;;;;7.22;3.30;;;22.20;80.90;;;;;;4940702;28;20046;-67
2022/08/01 01:15:41;;;;;;;4.40;3.22;;;22.10;81.20;;;;;;4940138;29;20122;-67
2022/08/01 01:18:32;;;;;;;4.30;2.92;;;22.10;81.40;;;;;;4937913;28;20035;-66
2022/08/01 01:21:16;;;;;;;3.08;2.83;;;22.00;81.80;;;;;;4937329;29;20498;-67
2022/08/01 01:24:00;;;;;;;2.88;2.67;;;21.90;82.20;;;;;;4936508;29;20061;-66
2022/08/01 01:26:31;;;;;;;3.20;2.90;;;21.90;82.30;;;;;;4939996;29;20055;-67
2022/08/01 01:29:03;;;;;;;3.70;3.00;;;21.90;82.70;;;;;;4943206;28;20039;-68
2022/08/01 01:31:30;;;;;;;3.95;2.90;;;21.90;82.60;;;;;;4944426;28;20118;-67
2022/08/01 01:33:59;;;;;;;3.33;2.92;;;21.90;82.70;;;;;;4939959;29;20586;-66
2022/08/01 01:36:27;;;;;;;3.47;2.72;;;21.80;82.70;;;;;;4938331;29;20514;-67
2022/08/01 01:38:54;;;;;;;5.20;3.08;;;21.80;82.90;;;;;;4937380;28;20030;-66
2022/08/01 01:41:21;;;;;;;3.33;3.03;;;21.80;83.30;;;;;;4938841;29;20036;-66
2022/08/01 01:43:49;;;;;;;3.10;2.90;;;21.70;83.40;;;;;;4935049;28;20070;-67
2022/08/01 01:46:18;;;;;;;3.67;3.30;;;21.70;83.60;;;;;;4941172;29;20589;-67
2022/08/01 01:48:46;;;;;;;3.58;3.28;;;21.70;83.90;;;;;;4941839;28;20034;-67
2022/08/01 01:51:15;;;;;;;3.45;2.88;;;21.60;84.20;;;;;;4940770;28;20676;-66
2022/08/01 01:53:41;;;;;;;3.97;3.40;;;21.60;84.30;;;;;;4939989;28;20129;-66
2022/08/01 01:56:09;;;;;;;3.42;3.00;;;21.60;84.50;;;;;;4936060;29;20049;-67
2022/08/01 01:58:38;;;;;;;4.03;3.45;;;21.50;84.80;;;;;;4938119;28;20414;-66
2022/08/01 02:01:06;;;;;;;3.35;3.05;;;21.50;84.80;;;;;;4932915;29;20032;-66
2022/08/01 02:03:36;;;;;;;4.03;3.38;;;21.40;84.80;;;;;;4935931;28;20046;-67
2022/08/01 02:06:02;;;;;;;3.60;3.20;;;21.40;85.10;;;;;;4939602;29;20031;-66
2022/08/01 02:08:30;;;;;;;3.67;3.38;;;21.40;85.20;;;;;;4941301;29;20038;-66
2022/08/01 02:13:43;;;;;;;;;;;21.40;85.60;;;;;;4938705;29;20030;-67
2022/08/01 02:16:11;;;;;;;3.58;3.25;;;21.40;86.30;;;;;;4935866;28;19911;-67
2022/08/01 02:18:36;;;;;;;4.28;3.55;;;21.40;86.00;;;;;;4937355;28;20482;-66
2022/08/01 02:21:08;;;;;;;4.88;4.32;;;21.40;86.00;;;;;;4932959;29;20063;-66
2022/08/01 02:23:36;;;;;;;6.07;3.78;;;21.50;86.20;;;;;;4939073;29;20037;-67
2022/08/01 02:26:10;;;;;;;4.50;3.83;;;21.50;86.20;;;;;;4940697;28;20424;-66
2022/08/01 02:28:59;;;;;;;3.40;3.10;;;21.50;86.10;;;;;;4941524;29;20069;-66
2022/08/01 02:31:27;;;;;;;3.20;2.88;;;21.60;86.00;;;;;;4941336;28;20035;-67
2022/08/01 02:34:03;;;;;;;3.80;3.50;;;21.50;85.90;;;;;;4938109;29;20122;-67
2022/08/01 02:36:32;;;;;;;3.28;2.97;;;21.50;86.00;;;;;;4937408;29;20039;-67
2022/08/01 02:39:02;;;;;;;2.85;2.63;;;21.60;86.00;;;;;;4933798;28;20056;-67
2022/08/01 02:41:30;;;;;;;6.70;2.92;;;21.50;85.80;;;;;;4935494;29;20038;-66
2022/08/01 02:44:00;;;;;;;3.17;2.88;;;21.60;86.00;;;;;;4942658;28;20091;-66
2022/08/01 02:46:40;;;;;;;3.60;3.30;;;21.60;86.00;;;;;;4940478;29;20042;-67
2022/08/01 02:49:09;;;;;;;3.88;3.17;;;21.60;86.00;;;;;;4938129;29;20089;-66
2022/08/01 02:51:36;;;;;;;5.03;3.85;;;21.50;85.90;;;;;;4941593;28;20027;-66
2022/08/01 02:54:04;;;;;;;3.40;3.13;;;21.60;85.90;;;;;;4938446;29;20032;-66
2022/08/01 02:56:35;;;;;;;3.78;3.08;;;21.50;85.90;;;;;;4940166;28;20042;-66
2022/08/01 02:59:07;;;;;;;6.82;3.00;;;21.50;86.00;;;;;;4938708;28;20047;-66
2022/08/01 03:01:35;;;;;;;3.35;2.80;;;21.40;86.20;;;;;;4939745;28;20101;-66
2022/08/01 03:04:04;;;;;;;3.40;3.10;;;21.40;86.40;;;;;;4944940;28;20060;-66
2022/08/01 03:06:32;;;;;;;2.95;2.65;;;21.40;86.30;;;;;;4941307;29;20035;-66
2022/08/01 03:08:59;;;;;;;4.90;3.33;;;21.40;86.40;;;;;;4941702;29;20417;-67
2022/08/01 03:11:28;;;;;;;3.83;3.35;;;21.50;86.50;;;;;;4940947;29;20035;-66
2022/08/01 03:13:55;;;;;;;4.15;3.55;;;21.50;86.30;;;;;;4937131;29;20504;-66
2022/08/01 03:16:23;;;;;;;3.55;2.90;;;21.50;86.10;;;;;;4938188;29;20094;-66
2022/08/01 03:18:51;;;;;;;3.28;2.97;;;21.50;86.30;;;;;;4942204;29;20027;-66
2022/08/01 03:21:20;;;;;;;4.45;2.92;;;21.60;86.30;;;;;;4944973;28;20106;-66
2022/08/01 03:23:47;;;;;;;5.18;3.05;;;21.60;86.20;;;;;;4943508;28;20031;-66
2022/08/01 03:26:13;;;;;;;3.63;2.90;;;21.60;85.80;;;;;;4940759;29;20035;-66
2022/08/01 03:28:41;;;;;;;4.50;3.17;;;21.60;85.50;;;;;;4941560;29;20034;-66
2022/08/01 03:31:07;;;;;;;3.33;3.03;;;21.70;85.30;;;;;;4939723;28;20064;-66
2022/08/01 03:33:33;;;;;;;4.25;2.92;;;21.70;85.10;;;;;;4939590;28;20042;-66
2022/08/01 03:36:01;;;;;;;4.25;3.35;;;21.70;85.00;;;;;;4936125;29;20119;-67
2022/08/01 03:38:30;;;;;;;5.43;3.40;;;21.80;85.00;;;;;;4941598;29;20039;-67
2022/08/01 03:41:05;;;;;;;3.10;2.42;;;21.80;84.70;;;;;;4940400;29;20043;-67
2022/08/01 03:43:42;;;;;;;3.60;3.05;;;21.80;84.70;;;;;;4943617;29;20035;-67
2022/08/01 03:46:12;;;;;;;4.10;2.97;;;21.80;84.70;;;;;;4940389;29;20034;-67
2022/08/01 03:48:42;;;;;;;4.97;3.35;;;21.80;84.70;;;;;;4941814;28;20035;-67
2022/08/01 03:51:09;;;;;;;3.88;3.47;;;21.80;84.80;;;;;;4937111;28;20479;-67
2022/08/01 03:53:38;;;;;;;4.25;3.53;;;21.80;84.90;;;;;;4939295;28;20035;-66
2022/08/01 03:56:08;;;;;;;4.25;3.47;;;21.80;85.00;;;;;;4934970;28;20063;-67
2022/08/01 03:58:36;;;;;;;3.95;3.20;;;21.80;85.50;;;;;;4944989;28;20035;-66
2022/08/01 04:01:02;;;;;;;3.95;3.50;;;21.80;85.70;;;;;;4943693;28;20046;-66
2022/08/01 04:03:29;;;;;;;3.40;3.10;;;21.80;85.80;;;;;;4942158;29;20114;-66
2022/08/01 04:05:55;;;;;;;4.15;3.63;;;21.80;86.00;;;;;;4941398;28;20183;-66
2022/08/01 04:08:20;;;;;;;3.40;3.03;;;21.90;86.40;;;;;;4938784;28;20122;-66
2022/08/01 04:10:46;;;;;;;3.60;3.10;;;21.90;86.60;;;;;;4939230;28;20255;-66
2022/08/01 04:13:12;;;;;;;5.00;3.17;;;21.90;86.70;;;;;;4935456;29;20032;-67
2022/08/01 04:15:38;;;;;;;4.75;3.05;;;21.90;87.00;;;;;;4937246;28;20027;-67
2022/08/01 04:18:04;;;;;;;5.45;3.13;;;21.90;87.10;;;;;;4944189;28;20515;-67
2022/08/01 04:20:29;;;;;;;4.13;2.95;;;21.90;87.10;;;;;;4941554;29;20035;-67
2022/08/01 04:22:55;;;;;;;3.97;3.17;;;21.90;87.20;;;;;;4942142;28;20134;-67
2022/08/01 04:25:34;;;;;;;3.40;3.10;;;21.90;87.90;;;;;;4940535;29;20036;-66
2022/08/01 04:28:03;;;;;;;4.10;3.70;;;21.90;88.20;;;;;;4938656;29;20039;-66
2022/08/01 04:30:33;;;;;;;4.15;3.35;;;21.90;88.30;;;;;;4944447;28;20065;-66
2022/08/01 04:33:02;;;;;;;4.28;3.50;;;21.90;88.20;;;;;;4934584;29;20043;-66
2022/08/01 04:35:29;;;;;;;3.78;3.45;;;21.90;88.30;;;;;;4940556;29;21010;-67
2022/08/01 04:37:56;;;;;;;4.70;3.47;;;21.90;88.30;;;;;;4943733;28;20086;-66
2022/08/01 04:40:23;;;;;;;5.88;3.90;;;22.00;88.30;;;;;;4942224;28;20136;-66
2022/08/01 04:42:49;;;;;;;4.18;3.55;;;22.00;88.30;;;;;;4941147;28;20487;-67
2022/08/01 04:45:16;;;;;;;4.40;3.28;;;22.00;88.10;;;;;;4938493;28;20042;-66
2022/08/01 04:47:42;;;;;;;5.50;3.13;;;22.00;87.90;;;;;;4940117;29;20424;-66
2022/08/01 04:50:09;;;;;;;3.65;2.97;;;22.00;87.70;;;;;;4934925;29;20098;-66
2022/08/01 04:52:37;;;;;;;4.93;3.40;;;22.10;87.80;;;;;;4936352;28;20027;-67
2022/08/01 04:55:05;;;;;;;4.53;3.50;;;22.10;87.60;;;;;;4940672;29;20089;-66
2022/08/01 04:57:38;;;;;;;4.38;3.47;;;22.10;87.30;;;;;;4939894;29;20027;-67
2022/08/01 05:00:06;;;;;;;4.80;3.78;;;22.20;87.20;;;;;;4940446;28;20046;-66
2022/08/01 05:02:32;;;;;;;4.03;3.45;;;22.20;87.30;;;;;;4937665;28;20042;-67
2022/08/01 05:04:57;;;;;;;3.22;2.95;;;22.30;87.30;;;;;;4936872;28;20035;-66
2022/08/01 05:07:24;;;;;;;3.95;3.55;;;22.30;87.20;;;;;;4937130;29;20028;-67
2022/08/01 05:09:50;;;;;;;5.43;3.08;;;22.30;87.10;;;;;;4941325;28;20027;-67
2022/08/01 05:12:16;;;;;;;4.68;3.55;;;22.30;87.00;;;;;;4937893;28;20039;-66
2022/08/01 05:14:42;;;;;;;3.50;3.20;;;22.40;87.00;;;;;;4946022;29;20039;-66
2022/08/01 05:17:08;;;;;;;3.20;2.90;;;22.40;86.80;;;;;;4942791;29;20138;-66
2022/08/01 05:19:39;;;;;;;3.45;2.80;;;22.50;86.60;;;;;;4942515;28;20122;-67
2022/08/01 05:22:07;;;;;;;3.63;3.03;;;22.50;86.50;;;;;;4936967;29;20043;-67
2022/08/01 05:24:34;;;;;;;4.72;3.05;;;22.50;86.20;;;;;;4938318;29;20106;-66
2022/08/01 05:27:00;;;;;;;3.85;3.00;;;22.60;86.00;;;;;;4933602;29;20054;-66
2022/08/01 05:29:26;;;;;;;3.78;2.53;;;22.50;86.00;;;;;;4934212;29;21612;-67
2022/08/01 05:31:52;;;;;;;2.65;2.45;;;22.50;85.90;;;;;;4945892;28;20033;-67
2022/08/01 05:34:19;;;;;;;6.50;2.83;;;22.60;86.20;;;;;;4940842;28;20039;-66
2022/08/01 05:36:45;;;;;;;3.05;2.80;;;22.60;86.10;;;;;;4940788;28;20106;-66
2022/08/01 05:39:11;;;;;;;4.28;2.90;;;22.60;85.70;;;;;;4937574;28;20050;-66
2022/08/01 05:41:37;;;;;;;2.55;2.30;;;22.60;85.80;;;;;;4938253;29;20027;-66
2022/08/01 05:44:04;;;;;;;2.60;2.40;;;22.70;85.60;;;;;;4935848;28;20249;-66
2022/08/01 05:46:30;;;;;;;2.40;2.20;;;22.70;85.30;;;;;;4936852;29;20023;-67
2022/08/01 05:48:57;;;;;;;3.55;2.30;;;22.80;85.50;;;;;;4934001;29;20040;-67
2022/08/01 05:51:23;;;;;;;2.22;2.00;;;22.70;85.90;;;;;;4942309;28;20196;-67
2022/08/01 05:53:49;;;;;;;2.20;2.00;;;22.70;86.60;;;;;;4940879;29;20192;-66
2022/08/01 05:56:14;;;;;;;4.25;2.08;;;22.70;87.00;;;;;;4940051;29;20032;-66
2022/08/01 05:58:40;;;;;;;2.30;2.03;;;22.70;87.20;;;;;;4954672;28;20035;-67
2022/08/01 06:01:06;;;;;;;2.20;2.00;;;22.70;87.20;;;;;;4936927;28;21016;-66
2022/08/01 06:03:33;;;;;;;3.28;2.30;;;22.70;87.40;;;;;;4938431;28;20088;-67
2022/08/01 06:06:00;;;;;;;2.30;2.10;;;22.70;87.10;;;;;;4934849;29;20590;-67
2022/08/01 06:08:26;;;;;;;15.70;4.45;;;22.70;86.90;;;;;;4935551;29;20399;-67
2022/08/01 06:10:51;;;;;;;3.88;2.72;;;22.70;87.40;;;;;;4942939;28;20710;-67
2022/08/01 06:13:19;;;;;;;4.15;2.60;;;22.60;87.80;;;;;;4940400;28;20054;-66
2022/08/01 06:15:46;;;;;;;6.65;2.97;;;22.60;87.70;;;;;;4941006;28;20046;-67
2022/08/01 06:18:12;;;;;;;4.90;2.70;;;22.60;87.70;;;;;;4937339;28;20396;-67
2022/08/01 06:20:38;;;;;;;3.53;2.50;;;22.60;87.80;;;;;;4938731;28;20035;-66
2022/08/01 06:23:04;;;;;;;3.05;2.70;;;22.60;87.50;;;;;;4935528;28;20051;-66
2022/08/01 06:25:30;;;;;;;2.58;2.30;;;22.50;87.40;;;;;;4936121;28;20087;-67
2022/08/01 06:27:56;;;;;;;3.92;2.17;;;22.50;87.40;;;;;;4935830;28;20027;-66
2022/08/01 06:30:21;;;;;;;3.75;2.90;;;22.60;87.40;;;;;;4943011;28;20985;-66
2022/08/01 06:32:47;;;;;;;3.70;2.25;;;22.60;87.60;;;;;;4945439;28;20047;-66
2022/08/01 06:35:14;;;;;;;3.28;2.63;;;22.60;87.60;;;;;;4942240;29;20035;-67
2022/08/01 06:37:40;;;;;;;3.30;2.72;;;22.60;87.60;;;;;;4942889;29;20070;-67
2022/08/01 06:40:09;;;;;;;4.13;3.13;;;22.60;88.30;;;;;;4939242;29;20126;-67
2022/08/01 06:42:35;;;;;;;3.90;2.88;;;22.70;88.80;;;;;;4939821;28;20035;-67
2022/08/01 06:45:03;;;;;;;3.13;2.75;;;22.70;89.20;;;;;;4936877;29;20047;-67
2022/08/01 06:47:28;;;;;;;5.13;3.40;;;22.70;89.20;;;;;;4942658;29;20026;-66
2022/08/01 06:49:54;;;;;;;3.90;2.80;;;22.70;89.40;;;;;;4945610;28;20226;-66
2022/08/01 06:52:20;;;;;;;4.10;3.28;;;22.70;89.10;;;;;;4942933;28;20086;-67
2022/08/01 06:54:46;;;;;;;3.85;3.20;;;22.70;89.10;;;;;;4942902;28;20081;-66
2022/08/01 06:57:12;;;;;;;3.40;3.10;;;22.70;89.30;;;;;;4939789;28;20045;-66
2022/08/01 06:59:37;;;;;;;3.78;3.35;;;22.80;89.70;;;;;;4940799;29;20042;-66
2022/08/01 07:02:03;;;;;;;4.32;3.15;;;22.70;90.00;;;;;;4936606;29;20039;-66
2022/08/01 07:04:29;;;;;;;4.22;2.97;;;22.80;90.00;;;;;;4938573;29;20062;-66
2022/08/01 07:06:56;;;;;;;3.67;3.38;;;22.90;90.00;;;;;;4941865;29;20066;-67
2022/08/01 07:09:22;;;;;;;4.38;3.78;;;22.90;88.80;;;;;;4943146;29;20043;-67
2022/08/01 07:11:47;;;;;;;6.25;4.05;;;22.80;88.70;;;;;;4943582;28;20031;-67
2022/08/01 07:14:13;;;;;;;4.20;3.80;;;22.90;88.70;;;;;;4940408;29;20419;-66
2022/08/01 07:16:39;;;;;;;6.65;3.63;;;22.80;88.70;;;;;;4940214;29;20082;-67
2022/08/01 07:19:05;;;;;;;5.78;4.15;;;22.80;88.50;;;;;;4937187;28;20035;-67
2022/08/01 07:21:30;;;;;;;3.90;3.50;;;22.80;88.80;;;;;;4938103;29;20490;-67
2022/08/01 07:23:56;;;;;;;5.15;4.25;;;22.80;89.00;;;;;;4935520;28;20046;-67
2022/08/01 07:26:22;;;;;;;4.82;4.38;;;22.70;89.10;;;;;;4944164;29;20491;-67
2022/08/01 07:28:48;;;;;;;4.45;4.05;;;22.70;89.90;;;;;;4944163;29;20069;-67
2022/08/01 07:31:13;;;;;;;6.00;4.25;;;22.60;90.20;;;;;;4946391;28;20035;-66
2022/08/01 07:33:39;;;;;;;5.65;4.00;;;22.50;90.30;;;;;;4944256;29;20522;-67
2022/08/01 07:36:05;;;;;;;8.00;4.75;;;22.40;90.40;;;;;;4943706;28;20040;-67
2022/08/01 07:38:31;;;;;;;4.95;4.50;;;22.40;90.80;;;;;;4940781;28;20027;-67
2022/08/01 07:40:56;;;;;;;4.68;4.18;;;22.40;91.10;;;;;;4936059;28;20043;-67
2022/08/01 07:43:22;;;;;;;5.38;4.53;;;22.40;90.90;;;;;;4942148;28;20039;-67
2022/08/01 07:45:48;;;;;;;5.20;4.70;;;22.40;90.80;;;;;;4943802;29;20028;-67
2022/08/01 07:48:14;;;;;;;5.60;4.05;;;22.50;90.70;;;;;;4941802;29;20039;-67
2022/08/01 07:50:39;;;;;;;4.30;3.90;;;22.60;90.70;;;;;;4942016;28;20035;-67
2022/08/01 07:53:05;;;;;;;4.05;3.65;;;22.70;90.70;;;;;;4938420;28;20032;-67
2022/08/01 07:55:31;;;;;;;4.38;3.30;;;22.80;90.50;;;;;;4939975;28;20760;-66
2022/08/01 07:57:57;;;;;;;3.58;3.17;;;23.00;90.30;;;;;;4937386;28;20499;-67
2022/08/01 08:00:22;;;;;;;2.92;2.70;;;23.10;88.80;;;;;;4936287;29;20122;-66
2022/08/01 08:02:48;;;;;;;2.60;2.40;;;23.20;86.90;;;;;;4944616;28;20042;-67
2022/08/01 08:05:14;;;;;;;4.03;2.30;;;23.30;87.00;;;;;;4942735;28;20043;-66
2022/08/01 08:07:40;;;;;;;3.08;1.95;;;23.30;85.70;;;;;;4942374;28;20035;-66
2022/08/01 08:10:06;;;;;;;1.90;1.70;;;23.30;84.30;;;;;;4939308;28;20078;-67
2022/08/01 08:12:32;;;;;;;1.70;1.60;;;23.30;85.60;;;;;;4939822;28;20031;-66
2022/08/01 08:15:00;;;;;;;2.30;1.77;;;23.20;84.80;;;;;;4937880;28;20482;-67
2022/08/01 08:17:26;;;;;;;1.92;1.73;;;23.20;84.70;;;;;;4937802;29;20476;-67
2022/08/01 08:19:51;;;;;;;1.80;1.70;;;23.10;85.20;;;;;;4934834;29;20839;-66
2022/08/01 08:22:17;;;;;;;1.88;1.67;;;23.20;85.00;;;;;;4942135;28;20039;-67
2022/08/01 08:24:43;;;;;;;3.05;2.17;;;23.20;84.20;;;;;;4943216;29;20515;-67
2022/08/01 08:27:09;;;;;;;3.95;1.45;;;23.30;84.10;;;;;;4940291;28;20035;-66
2022/08/01 08:29:35;;;;;;;2.03;1.67;;;23.30;84.00;;;;;;4940567;28;20034;-67
2022/08/01 08:32:01;;;;;;;2.15;1.95;;;23.30;83.90;;;;;;4938970;28;20638;-67
2022/08/01 08:34:28;;;;;;;1.67;1.58;;;23.40;83.10;;;;;;4938339;29;20035;-66
2022/08/01 08:36:55;;;;;;;1.70;1.60;;;23.40;81.90;;;;;;4935997;29;20035;-67
2022/08/01 08:39:22;;;;;;;1.50;1.40;;;23.40;81.90;;;;;;4934650;29;20042;-66
2022/08/01 08:41:48;;;;;;;2.17;1.52;;;23.50;81.00;;;;;;4942570;28;20492;-67
2022/08/01 08:44:15;;;;;;;2.05;1.33;;;23.50;80.60;;;;;;4940866;28;20614;-67
2022/08/01 08:46:46;;;;;;;1.70;1.30;;;23.50;79.40;;;;;;4941140;28;20038;-67
2022/08/01 08:49:17;;;;;;;2.00;1.77;;;23.50;79.50;;;;;;4937318;29;20043;-66
2022/08/01 08:51:43;;;;;;;3.92;1.42;;;23.60;80.20;;;;;;4938401;28;20460;-67
2022/08/01 08:54:12;;;;;;;1.70;1.40;;;23.70;80.10;;;;;;4934110;28;20034;-66
2022/08/01 08:56:39;;;;;;;3.47;1.60;;;23.90;79.60;;;;;;4936287;29;20039;-67
2022/08/01 08:59:04;;;;;;;1.50;1.40;;;24.00;78.10;;;;;;4939284;28;20081;-67
2022/08/01 09:01:33;;;;;;;2.40;1.52;;;24.10;78.00;;;;;;4938159;28;20114;-67
2022/08/01 09:03:59;;;;;;;3.25;1.77;;;24.20;76.80;;;;;;4941313;29;20394;-66
2022/08/01 09:06:25;;;;;;;1.30;1.23;;;24.20;77.50;;;;;;4939353;29;21498;-67
2022/08/01 09:08:51;;;;;;;5.90;1.60;;;24.20;77.20;;;;;;4938627;28;20027;-67
2022/08/01 09:11:16;;;;;;;2.08;1.45;;;24.20;76.90;;;;;;4936256;29;20395;-66
2022/08/01 09:14:08;;;;;;;2.22;1.20;;;24.20;76.90;;;;;;4936788;29;20459;-67
2022/08/01 09:16:36;;;;;;;1.00;1.00;;;24.20;76.80;;;;;;4935709;29;20031;-66
2022/08/01 09:19:11;;;;;;;2.08;0.95;;;24.20;76.60;;;;;;4938724;29;20027;-66
2022/08/01 09:21:37;;;;;;;1.25;0.90;;;24.30;76.10;;;;;;4934871;28;20035;-66
2022/08/01 09:24:05;;;;;;;2.08;0.90;;;24.40;76.50;;;;;;4939395;28;20035;-66
2022/08/01 09:26:34;;;;;;;1.90;1.00;;;24.50;74.40;;;;;;4939565;29;20059;-67
2022/08/01 09:29:03;;;;;;;2.28;0.82;;;24.60;74.40;;;;;;4936120;29;20031;-67
2022/08/01 09:31:39;;;;;;;1.40;0.90;;;24.70;73.40;;;;;;4938344;28;20027;-67
2022/08/01 09:34:05;;;;;;;0.70;0.65;;;24.70;73.00;;;;;;4933365;28;20043;-66
2022/08/01 09:36:51;;;;;;;2.17;0.95;;;24.70;71.20;;;;;;4935983;28;20050;-67
2022/08/01 09:39:19;;;;;;;0.80;0.80;;;24.70;72.20;;;;;;4940370;29;20071;-66
2022/08/01 09:41:46;;;;;;;1.00;1.00;;;24.80;72.90;;;;;;4940810;28;20038;-67
2022/08/01 09:44:12;;;;;;;1.27;0.90;;;25.00;71.70;;;;;;4938639;28;20043;-67
2022/08/01 09:46:58;;;;;;;0.70;0.70;;;25.00;71.40;;;;;;4940045;28;20035;-67
2022/08/01 09:49:29;;;;;;;0.70;0.70;;;25.10;70.70;;;;;;4939286;29;20383;-66
2022/08/01 09:51:56;;;;;;;2.00;0.90;;;25.10;70.40;;;;;;4936685;28;20039;-67
2022/08/01 09:54:32;;;;;;;1.08;0.95;;;25.10;70.40;;;;;;4935981;29;20612;-67
2022/08/01 09:57:16;;;;;;;0.93;0.93;;;25.10;70.40;;;;;;4937971;28;20043;-67
2022/08/01 09:59:48;;;;;;;1.10;1.05;;;25.10;70.20;;;;;;4935259;29;20038;-67
2022/08/01 10:02:29;;;;;;;1.67;1.30;;;25.00;69.10;;;;;;4937382;28;20039;-66
2022/08/01 10:04:55;;;;;;;1.10;1.00;;;25.00;69.60;;;;;;4936782;28;20039;-67
2022/08/01 10:07:22;;;;;;;1.77;1.20;;;25.00;70.00;;;;;;4939139;29;20087;-67
2022/08/01 10:09:48;;;;;;;2.10;1.23;;;25.00;69.60;;;;;;4938525;28;20070;-67
2022/08/01 10:12:20;;;;;;;1.20;1.10;;;25.00;70.00;;;;;;4942026;28;20066;-67
2022/08/01 10:14:49;;;;;;;1.60;1.20;;;25.00;70.20;;;;;;4942365;28;20035;-67
2022/08/01 10:17:17;;;;;;;1.75;1.10;;;25.10;69.90;;;;;;4944894;29;20042;-66
2022/08/01 10:19:44;;;;;;;3.25;1.13;;;25.00;69.70;;;;;;4944867;28;20031;-67
2022/08/01 10:22:18;;;;;;;1.42;1.10;;;25.00;70.20;;;;;;4941224;28;20114;-67
2022/08/01 10:24:47;;;;;;;1.58;1.10;;;24.80;69.80;;;;;;4943105;29;20058;-67
2022/08/01 10:27:15;;;;;;;2.03;1.35;;;24.70;70.60;;;;;;4954351;28;20127;-67
2022/08/01 10:29:56;;;;;;;1.30;1.20;;;24.70;70.40;;;;;;4940395;29;20027;-66
2022/08/01 10:32:22;;;;;;;3.80;1.20;;;24.70;70.40;;;;;;4938916;28;20718;-67
2022/08/01 10:34:49;;;;;;;0.95;0.95;;;24.80;69.90;;;;;;4946879;28;20035;-67
2022/08/01 10:37:16;;;;;;;0.77;0.60;;;24.80;69.00;;;;;;4945204;29;20480;-67
2022/08/01 10:39:43;;;;;;;1.83;0.80;;;24.90;69.30;;;;;;4944450;28;20046;-67
2022/08/01 10:42:10;;;;;;;1.05;0.88;;;24.90;69.30;;;;;;4940749;28;20795;-67
2022/08/01 10:44:37;;;;;;;0.90;0.90;;;24.80;69.80;;;;;;4942288;28;20038;-67
2022/08/01 10:47:12;;;;;;;0.60;0.60;;;24.80;69.40;;;;;;4938474;28;20087;-67
2022/08/01 10:50:02;;;;;;;2.50;0.88;;;24.70;69.50;;;;;;4939714;29;20042;-67
2022/08/01 10:52:28;;;;;;;2.10;0.98;;;24.70;69.90;;;;;;4941421;29;20035;-67
2022/08/01 10:55:11;;;;;;;3.92;1.00;;;24.60;69.70;;;;;;4945958;28;20058;-67
2022/08/01 10:57:47;;;;;;;1.70;0.80;;;24.40;70.20;;;;;;4941973;29;20041;-66
2022/08/01 11:00:18;;;;;;;2.88;1.10;;;24.30;71.20;;;;;;4941469;28;20462;-67
2022/08/01 11:03:00;;;;;;;3.63;1.17;;;24.20;72.10;;;;;;4941399;28;20031;-67
2022/08/01 11:05:28;;;;;;;1.40;1.13;;;24.10;72.30;;;;;;4940385;29;20074;-67
2022/08/01 11:07:54;;;;;;;1.30;1.00;;;24.00;73.00;;;;;;4938211;29;20131;-66
2022/08/01 11:10:26;;;;;;;1.20;1.10;;;23.90;73.50;;;;;;4937010;29;20126;-67
2022/08/01 11:12:52;;;;;;;1.25;1.00;;;23.90;73.90;;;;;;4945181;28;20122;-67
2022/08/01 11:15:27;;;;;;;1.30;1.20;;;23.90;74.30;;;;;;4943237;29;20062;-66
2022/08/01 11:17:54;;;;;;;5.00;1.25;;;23.90;74.30;;;;;;4940731;28;20035;-67
2022/08/01 11:20:33;;;;;;;3.70;1.23;;;24.00;73.80;;;;;;4943088;28;20035;-67
2022/08/01 11:23:05;;;;;;;1.73;1.10;;;24.10;73.60;;;;;;4951675;28;20035;-67
2022/08/01 11:25:33;;;;;;;1.33;1.00;;;24.30;72.60;;;;;;4947288;28;20035;-67
2022/08/01 11:28:25;;;;;;;2.53;1.05;;;24.40;71.70;;;;;;4942098;28;20035;-66
2022/08/01 11:30:54;;;;;;;2.03;1.67;;;24.70;72.10;;;;;;4944917;28;20035;-67
2022/08/01 11:33:44;;;;;;;1.00;1.00;;;24.80;71.00;;;;;;4943275;28;20036;-66
2022/08/01 11:36:10;;;;;;;2.00;1.40;;;25.10;70.90;;;;;;4933674;28;20078;-67
2022/08/01 11:38:36;;;;;;;1.42;1.08;;;25.30;69.60;;;;;;4942075;28;20199;-67
2022/08/01 11:41:23;;;;;;;2.03;1.00;;;25.60;68.70;;;;;;4940738;29;20064;-67
2022/08/01 11:43:57;;;;;;;1.08;0.90;;;25.70;66.60;;;;;;4938978;29;20046;-66
2022/08/01 11:46:49;;;;;;;1.05;0.90;;;25.80;66.00;;;;;;4938027;29;20039;-67
2022/08/01 11:49:27;;;;;;;2.17;0.90;;;25.80;66.10;;;;;;4939145;29;20035;-67
2022/08/01 11:52:07;;;;;;;2.13;0.80;;;25.80;65.70;;;;;;4943681;28;20145;-67
2022/08/01 11:54:39;;;;;;;0.85;0.77;;;25.80;65.70;;;;;;4936741;29;20045;-66
2022/08/01 11:57:08;;;;;;;1.13;1.02;;;25.80;66.20;;;;;;4939635;28;20031;-67
2022/08/01 11:59:40;;;;;;;0.93;0.93;;;25.80;66.40;;;;;;4940084;28;20023;-67
2022/08/01 12:02:18;;;;;;;1.02;1.00;;;25.90;66.40;;;;;;4936099;28;20040;-67
2022/08/01 12:04:46;;;;;;;1.17;1.02;;;26.00;67.00;;;;;;4939353;29;20035;-69
2022/08/01 12:07:14;;;;;;;3.20;1.08;;;26.10;66.20;;;;;;4937313;29;20044;-70
2022/08/01 12:09:40;;;;;;;3.58;1.00;;;26.20;65.20;;;;;;4943993;29;20040;-69
2022/08/01 12:12:06;;;;;;;1.70;1.08;;;26.20;65.30;;;;;;4941351;28;20347;-69
2022/08/01 12:14:32;;;;;;;0.93;0.73;;;26.20;65.30;;;;;;4940967;28;20102;-69
2022/08/01 12:16:58;;;;;;;1.17;0.90;;;26.20;64.90;;;;;;4939902;28;20046;-70
2022/08/01 12:19:24;;;;;;;1.67;0.80;;;26.20;64.20;;;;;;4938896;29;20044;-70
2022/08/01 12:22:09;;;;;;;2.58;0.98;;;26.20;63.90;;;;;;4939635;28;20035;-70
2022/08/01 12:24:36;;;;;;;0.70;0.70;;;26.20;63.30;;;;;;4937240;29;20030;-70
2022/08/01 12:27:03;;;;;;;0.68;0.68;;;26.20;63.90;;;;;;4941017;29;20496;-69
2022/08/01 12:29:33;;;;;;;1.48;0.80;;;26.20;64.30;;;;;;4942214;28;20039;-69
2022/08/01 12:31:59;;;;;;;1.33;0.70;;;26.20;64.20;;;;;;4943924;28;20909;-70
2022/08/01 12:34:29;;;;;;;0.68;0.68;;;26.30;63.80;;;;;;4940571;29;20046;-70
2022/08/01 12:36:57;;;;;;;0.57;0.57;;;26.30;63.50;;;;;;4941849;29;20043;-69
2022/08/01 12:39:29;;;;;;;1.08;0.82;;;26.30;63.70;;;;;;4938142;29;20046;-69
2022/08/01 12:41:55;;;;;;;0.98;0.80;;;26.40;63.40;;;;;;4935880;29;20392;-69
2022/08/01 12:44:21;;;;;;;1.83;0.63;;;26.40;63.00;;;;;;4935606;29;20075;-69
2022/08/01 12:46:47;;;;;;;0.70;0.70;;;26.40;62.80;;;;;;4944179;28;20034;-70
2022/08/01 12:49:13;;;;;;;2.55;0.88;;;26.30;63.30;;;;;;4941297;29;20035;-69
2022/08/01 12:51:39;;;;;;;1.60;0.68;;;26.20;63.50;;;;;;4941534;28;20705;-69
2022/08/01 12:54:05;;;;;;;1.98;0.90;;;26.20;63.90;;;;;;4939201;28;20043;-70
2022/08/01 12:56:33;;;;;;;1.80;0.65;;;26.20;63.90;;;;;;4940030;29;20122;-70
2022/08/01 12:59:00;;;;;;;0.80;0.80;;;26.20;63.00;;;;;;4936609;29;20154;-70